Time;durP1;ratioP1;P1;durP2;ratioP2;P2;SDS_P1;SDS_P2;PMS_P1;PMS_P2;Temp;Humidity;BMP_temperature;BMP_pressure;BME280_temperature;BME280_humidity;BME280_pressure;Samples;Min_cycle;Max_cycle;Signal;HPM_P1;HPM_P2
2022/04/17 00:01:07;;;;;;;1999.90;999.90;;;;;;;;;;5026805;28;20244;-68
2022/04/17 00:03:52;;;;;;;1999.90;999.90;;;;;;;;;;5028919;28;20573;-68
2022/04/17 00:06:37;;;;;;;1999.90;999.90;;;;;;;;;;5021551;28;20215;-68
2022/04/17 00:09:22;;;;;;;1999.90;999.90;;;;;;;;;;5027163;28;20224;-68
2022/04/17 00:12:07;;;;;;;1999.90;999.90;;;;;;;;;;5027085;28;20479;-67
2022/04/17 00:14:55;;;;;;;1999.90;999.90;;;;;;;;;;5023642;28;20416;-68
2022/04/17 00:17:42;;;;;;;1999.90;999.90;;;;;;;;;;5030822;28;20810;-68
2022/04/17 00:20:27;;;;;;;1999.90;999.90;;;;;;;;;;5030815;28;20269;-67
2022/04/17 00:23:11;;;;;;;1999.90;999.90;;;;;;;;;;5024135;28;20586;-68
2022/04/17 00:25:56;;;;;;;1999.90;999.90;;;;;;;;;;5023658;28;20210;-68
2022/04/17 00:28:41;;;;;;;1999.90;999.90;;;;;;;;;;5023592;28;20197;-68
2022/04/17 00:31:28;;;;;;;1999.90;999.90;;;;;;;;;;5018824;28;20222;-68
2022/04/17 00:34:12;;;;;;;1999.90;999.90;;;;;;;;;;5024665;28;20299;-68
2022/04/17 00:36:59;;;;;;;1999.90;999.90;;;;;;;;;;5023549;28;20310;-68
2022/04/17 00:39:44;;;;;;;1999.90;999.90;;;;;;;;;;5029830;28;20551;-67
2022/04/17 00:42:29;;;;;;;1999.90;999.90;;;;;;;;;;5030876;28;20205;-68
2022/04/17 00:45:14;;;;;;;1999.90;999.90;;;;;;;;;;5026550;28;20292;-68
2022/04/17 00:48:01;;;;;;;1999.90;999.90;;;;;;;;;;5022296;28;20209;-68
2022/04/17 00:50:46;;;;;;;1999.90;999.90;;;;;;;;;;5031683;28;20367;-68
2022/04/17 00:53:31;;;;;;;1999.90;999.90;;;;;;;;;;5026811;28;20229;-68
2022/04/17 00:56:17;;;;;;;1999.90;999.90;;;;;;;;;;5021560;28;20429;-68
2022/04/17 00:59:02;;;;;;;1999.90;999.90;;;;;;;;;;5023019;28;20218;-68
2022/04/17 01:01:47;;;;;;;1999.90;999.90;;;;;;;;;;5023599;28;20224;-68
2022/04/17 01:04:34;;;;;;;1999.90;999.90;;;;;;;;;;5020211;28;20213;-67
2022/04/17 01:07:22;;;;;;;1999.90;999.90;;;;;;;;;;5029199;28;20558;-68
2022/04/17 01:10:07;;;;;;;1999.90;999.90;;;;;;;;;;5026353;28;20323;-68
2022/04/17 01:12:54;;;;;;;1999.90;999.90;;;;;;;;;;5018976;28;20200;-68
2022/04/17 01:15:39;;;;;;;1999.90;999.90;;;;;;;;;;5031112;28;20786;-68
2022/04/17 01:18:23;;;;;;;1999.90;999.90;;;;;;;;;;5027033;28;20235;-68
2022/04/17 01:21:10;;;;;;;1999.90;999.90;;;;;;;;;;5022785;28;20230;-65
2022/04/17 01:27:01;;;;;;;1999.90;999.90;;;;;;;;;;5016672;28;20335;-68
2022/04/17 01:29:48;;;;;;;1999.90;999.90;;;;;;;;;;5024382;28;20252;-68
2022/04/17 01:32:33;;;;;;;1999.90;999.90;;;;;;;;;;5014994;28;20224;-68
2022/04/17 01:35:18;;;;;;;1999.90;999.90;;;;;;;;;;5022888;28;20686;-68
2022/04/17 01:38:03;;;;;;;1999.90;999.90;;;;;;;;;;5029694;28;20434;-68
2022/04/17 01:40:49;;;;;;;1999.90;999.90;;;;;;;;;;5025056;28;20274;-68
2022/04/17 01:43:34;;;;;;;1999.90;999.90;;;;;;;;;;5030188;28;20219;-68
2022/04/17 01:46:19;;;;;;;1999.90;999.90;;;;;;;;;;5018778;28;20205;-68
2022/04/17 01:49:04;;;;;;;1999.90;999.90;;;;;;;;;;5015832;28;20803;-67
2022/04/17 01:51:51;;;;;;;1999.90;999.90;;;;;;;;;;5022328;28;20302;-68
2022/04/17 01:54:37;;;;;;;1999.90;999.90;;;;;;;;;;5029788;28;20294;-68
2022/04/17 01:57:23;;;;;;;1999.90;999.90;;;;;;;;;;5019136;28;20244;-68
2022/04/17 02:00:09;;;;;;;1999.90;999.90;;;;;;;;;;5029166;28;20229;-67
2022/04/17 02:02:54;;;;;;;1999.90;999.90;;;;;;;;;;5027403;28;20256;-68
2022/04/17 02:05:39;;;;;;;1999.90;999.90;;;;;;;;;;5019997;28;20351;-68
2022/04/17 02:08:26;;;;;;;1999.90;999.90;;;;;;;;;;5022957;28;20257;-68
2022/04/17 02:11:12;;;;;;;1999.90;999.90;;;;;;;;;;5029026;28;20236;-68
2022/04/17 02:14:00;;;;;;;1999.90;999.90;;;;;;;;;;5021269;28;20291;-68
2022/04/17 02:16:45;;;;;;;1999.90;999.90;;;;;;;;;;5024542;28;20216;-68
2022/04/17 02:19:30;;;;;;;1999.90;999.90;;;;;;;;;;5029152;28;20422;-68
2022/04/17 02:22:15;;;;;;;1999.90;999.90;;;;;;;;;;5028865;28;20232;-67
2022/04/17 02:25:02;;;;;;;1999.90;999.90;;;;;;;;;;5025990;28;20208;-67
2022/04/17 02:27:47;;;;;;;1999.90;999.90;;;;;;;;;;5024514;28;20204;-68
2022/04/17 02:30:33;;;;;;;1999.90;999.90;;;;;;;;;;5021629;28;20427;-67
2022/04/17 02:33:18;;;;;;;1999.90;999.90;;;;;;;;;;5023150;28;20244;-68
2022/04/17 02:36:04;;;;;;;1999.90;999.90;;;;;;;;;;5021864;28;20779;-67
2022/04/17 02:38:49;;;;;;;1999.90;999.90;;;;;;;;;;5030956;28;20616;-68
2022/04/17 02:41:34;;;;;;;1999.90;999.90;;;;;;;;;;5018203;28;20818;-68
2022/04/17 02:44:19;;;;;;;1999.90;999.90;;;;;;;;;;5022975;28;20229;-68
2022/04/17 02:50:08;;;;;;;1999.90;999.90;;;;;;;;;;5019547;28;20737;-68
2022/04/17 02:52:54;;;;;;;1999.90;999.90;;;;;;;;;;5023784;28;20291;-68
2022/04/17 02:55:39;;;;;;;1999.90;999.90;;;;;;;;;;5014561;28;20577;-68
2022/04/17 02:58:24;;;;;;;1999.90;999.90;;;;;;;;;;5022341;28;20755;-68
2022/04/17 03:07:16;;;;;;;1999.90;999.90;;;;;;;;;;5022378;28;20349;-67
2022/04/17 03:10:02;;;;;;;1999.90;999.90;;;;;;;;;;5024600;28;20232;-68
2022/04/17 03:12:46;;;;;;;1999.90;999.90;;;;;;;;;;5027260;28;20435;-68
2022/04/17 03:15:31;;;;;;;1999.90;999.90;;;;;;;;;;5022349;28;20215;-70
2022/04/17 03:18:16;;;;;;;1999.90;999.90;;;;;;;;;;5024714;28;20221;-67
2022/04/17 03:21:02;;;;;;;1999.90;999.90;;;;;;;;;;5029300;28;20687;-67
2022/04/17 03:23:47;;;;;;;1999.90;999.90;;;;;;;;;;5022226;28;20206;-68
2022/04/17 03:26:33;;;;;;;1999.90;999.90;;;;;;;;;;5028554;28;20715;-67
2022/04/17 03:29:17;;;;;;;1999.90;999.90;;;;;;;;;;5021503;28;20278;-67
2022/04/17 03:32:03;;;;;;;1999.90;999.90;;;;;;;;;;5027787;28;20592;-67
2022/04/17 03:34:48;;;;;;;1999.90;999.90;;;;;;;;;;5018185;28;20203;-67
2022/04/17 03:37:34;;;;;;;1999.90;999.90;;;;;;;;;;5023932;28;20280;-67
2022/04/17 03:40:19;;;;;;;1999.90;999.90;;;;;;;;;;5013656;28;20746;-68
2022/04/17 03:43:04;;;;;;;1999.90;999.90;;;;;;;;;;5014242;28;20215;-68
2022/04/17 03:45:49;;;;;;;1999.90;999.90;;;;;;;;;;5028481;28;20422;-68
2022/04/17 03:48:34;;;;;;;1999.90;999.90;;;;;;;;;;5028758;28;20212;-68
2022/04/17 03:51:19;;;;;;;1999.90;999.90;;;;;;;;;;5013549;28;20227;-68
2022/04/17 03:54:05;;;;;;;1999.90;999.90;;;;;;;;;;5027614;28;20724;-68
2022/04/17 03:56:50;;;;;;;1999.90;999.90;;;;;;;;;;5027967;28;20418;-68
2022/04/17 03:59:36;;;;;;;1999.90;999.90;;;;;;;;;;5026231;28;20268;-68
2022/04/17 04:02:21;;;;;;;1999.90;999.90;;;;;;;;;;5022611;28;20213;-68
2022/04/17 04:05:07;;;;;;;1999.90;999.90;;;;;;;;;;5022894;28;20285;-68
2022/04/17 04:07:52;;;;;;;1999.90;999.90;;;;;;;;;;5032180;28;20322;-68
2022/04/17 04:10:38;;;;;;;1999.90;999.90;;;;;;;;;;5028711;28;20727;-68
2022/04/17 04:13:23;;;;;;;1999.90;999.90;;;;;;;;;;5028629;28;20577;-68
2022/04/17 04:16:08;;;;;;;1999.90;999.90;;;;;;;;;;5013329;28;20231;-68
2022/04/17 04:18:53;;;;;;;1999.90;999.90;;;;;;;;;;5023333;28;20341;-68
2022/04/17 04:21:47;;;;;;;1999.90;999.90;;;;;;;;;;5024545;28;20344;-68
2022/04/17 04:24:32;;;;;;;1999.90;999.90;;;;;;;;;;5023795;28;20677;-68
2022/04/17 04:30:21;;;;;;;1999.90;999.90;;;;;;;;;;5031333;28;20230;-68
2022/04/17 04:33:06;;;;;;;1999.90;999.90;;;;;;;;;;5031921;28;20214;-68
2022/04/17 04:35:52;;;;;;;1999.90;999.90;;;;;;;;;;5020544;28;20749;-68
2022/04/17 04:38:37;;;;;;;1999.90;999.90;;;;;;;;;;5019527;28;20806;-68
2022/04/17 04:41:22;;;;;;;1999.90;999.90;;;;;;;;;;5031312;28;20371;-68
2022/04/17 04:44:09;;;;;;;1999.90;999.90;;;;;;;;;;5023660;28;20209;-68
2022/04/17 04:46:54;;;;;;;1999.90;999.90;;;;;;;;;;5023633;28;20208;-66
2022/04/17 04:49:38;;;;;;;1999.90;999.90;;;;;;;;;;5023205;28;20631;-68
2022/04/17 04:52:23;;;;;;;1999.90;999.90;;;;;;;;;;5025432;28;20210;-67
2022/04/17 04:55:08;;;;;;;1999.90;999.90;;;;;;;;;;5023434;28;20321;-68
2022/04/17 04:57:53;;;;;;;1999.90;999.90;;;;;;;;;;5028161;28;20238;-68
2022/04/17 05:00:39;;;;;;;1999.90;999.90;;;;;;;;;;5030976;28;20310;-67
2022/04/17 05:03:25;;;;;;;1999.90;999.90;;;;;;;;;;5031337;28;20688;-65
2022/04/17 05:06:10;;;;;;;1999.90;999.90;;;;;;;;;;5017064;28;20218;-69
2022/04/17 05:08:55;;;;;;;1999.90;999.90;;;;;;;;;;5022396;28;20685;-68
2022/04/17 05:11:40;;;;;;;1999.90;999.90;;;;;;;;;;5011225;28;20215;-68
2022/04/17 05:14:29;;;;;;;1999.90;999.90;;;;;;;;;;5016799;28;20231;-66
2022/04/17 05:17:15;;;;;;;1999.90;999.90;;;;;;;;;;5011698;28;20301;-67
2022/04/17 05:20:00;;;;;;;1999.90;999.90;;;;;;;;;;5011368;28;20978;-65
2022/04/17 05:22:45;;;;;;;1999.90;999.90;;;;;;;;;;5010491;28;20441;-68
2022/04/17 05:25:30;;;;;;;1999.90;999.90;;;;;;;;;;5011522;28;20931;-68
2022/04/17 05:28:15;;;;;;;1999.90;999.90;;;;;;;;;;5011815;28;20222;-67
2022/04/17 05:31:00;;;;;;;1999.90;999.90;;;;;;;;;;5011174;28;20617;-62
2022/04/17 05:33:47;;;;;;;1999.90;999.90;;;;;;;;;;5013628;28;20328;-66
2022/04/17 05:36:31;;;;;;;1999.90;999.90;;;;;;;;;;5015503;28;20204;-67
2022/04/17 05:39:17;;;;;;;1999.90;999.90;;;;;;;;;;5030543;28;20226;-67
2022/04/17 05:42:01;;;;;;;1999.90;999.90;;;;;;;;;;5030390;28;20351;-67
2022/04/17 05:44:47;;;;;;;1999.90;999.90;;;;;;;;;;5035075;28;20295;-67
2022/04/17 05:47:31;;;;;;;1999.90;999.90;;;;;;;;;;5021821;28;20205;-66
2022/04/17 05:50:18;;;;;;;1999.90;999.90;;;;;;;;;;5016037;28;20230;-68
2022/04/17 05:53:03;;;;;;;1999.90;999.90;;;;;;;;;;5016074;28;20575;-67
2022/04/17 05:55:49;;;;;;;1999.90;999.90;;;;;;;;;;5016121;28;20687;-68
2022/04/17 05:58:34;;;;;;;1999.90;999.90;;;;;;;;;;5032598;28;20212;-67
2022/04/17 06:01:19;;;;;;;1999.90;999.90;;;;;;;;;;5022318;28;20246;-68
2022/04/17 06:04:04;;;;;;;1999.90;999.90;;;;;;;;;;5030945;28;20209;-68
2022/04/17 06:06:51;;;;;;;1999.90;999.90;;;;;;;;;;5018216;28;20652;-68
2022/04/17 06:09:36;;;;;;;1999.90;999.90;;;;;;;;;;5020595;28;20892;-68
2022/04/17 06:12:21;;;;;;;1999.90;999.90;;;;;;;;;;5015619;28;20218;-67
2022/04/17 06:15:07;;;;;;;1999.90;999.90;;;;;;;;;;5015562;28;20204;-65
2022/04/17 06:17:52;;;;;;;1999.90;999.90;;;;;;;;;;5014791;28;20203;-68
2022/04/17 06:20:36;;;;;;;1999.90;999.90;;;;;;;;;;5015511;28;20222;-66
2022/04/17 06:23:23;;;;;;;1999.90;999.90;;;;;;;;;;5015097;28;20350;-68
2022/04/17 06:26:09;;;;;;;1999.90;999.90;;;;;;;;;;5024990;28;20348;-68
2022/04/17 06:28:54;;;;;;;1999.90;999.90;;;;;;;;;;5014094;28;20683;-67
2022/04/17 06:31:45;;;;;;;1999.90;999.90;;;;;;;;;;5019363;28;20265;-67
2022/04/17 06:34:30;;;;;;;1999.90;999.90;;;;;;;;;;5029958;28;20599;-66
2022/04/17 06:37:15;;;;;;;1999.90;999.90;;;;;;;;;;5028638;28;20213;-68
2022/04/17 06:40:01;;;;;;;1999.90;999.90;;;;;;;;;;5013752;28;20237;-67
2022/04/17 06:42:46;;;;;;;1999.90;999.90;;;;;;;;;;5013951;28;20752;-68
2022/04/17 06:45:31;;;;;;;1999.90;999.90;;;;;;;;;;5013990;28;20210;-68
2022/04/17 06:48:16;;;;;;;1999.90;999.90;;;;;;;;;;5013731;28;20699;-68
2022/04/17 06:51:01;;;;;;;1999.90;999.90;;;;;;;;;;5027444;28;20493;-67
2022/04/17 06:53:46;;;;;;;1999.90;999.90;;;;;;;;;;5033005;28;20420;-68
2022/04/17 06:56:32;;;;;;;1999.90;999.90;;;;;;;;;;5033416;28;20209;-68
2022/04/17 06:59:17;;;;;;;1999.90;999.90;;;;;;;;;;5032741;28;20221;-68
2022/04/17 07:02:02;;;;;;;1999.90;999.90;;;;;;;;;;5033412;28;20582;-68
2022/04/17 07:04:47;;;;;;;1999.90;999.90;;;;;;;;;;5033322;28;20205;-68
2022/04/17 07:07:32;;;;;;;1999.90;999.90;;;;;;;;;;5033155;28;20269;-68
2022/04/17 07:10:17;;;;;;;1999.90;999.90;;;;;;;;;;5033497;28;20728;-69
2022/04/17 07:13:03;;;;;;;1999.90;999.90;;;;;;;;;;5033192;28;20263;-66
2022/04/17 07:15:49;;;;;;;1999.90;999.90;;;;;;;;;;5033110;28;20214;-68
2022/04/17 07:18:34;;;;;;;1999.90;999.90;;;;;;;;;;5032999;28;20315;-67
2022/04/17 07:21:20;;;;;;;1999.90;999.90;;;;;;;;;;5033736;28;20221;-67
2022/04/17 07:24:05;;;;;;;1999.90;999.90;;;;;;;;;;5026080;28;20206;-68
2022/04/17 07:26:53;;;;;;;1999.90;999.90;;;;;;;;;;5022150;28;20194;-67
2022/04/17 07:29:39;;;;;;;1999.90;999.90;;;;;;;;;;5029310;28;20198;-66
2022/04/17 07:32:25;;;;;;;1999.90;999.90;;;;;;;;;;5021930;28;20428;-67
2022/04/17 07:35:11;;;;;;;1999.90;999.90;;;;;;;;;;5026469;28;20664;-67
2022/04/17 07:37:57;;;;;;;1999.90;999.90;;;;;;;;;;5030456;28;20210;-69
2022/04/17 07:40:44;;;;;;;1999.90;999.90;;;;;;;;;;5019551;28;20309;-67
2022/04/17 07:43:29;;;;;;;1999.90;999.90;;;;;;;;;;5014065;28;21089;-67
2022/04/17 07:46:16;;;;;;;1999.90;999.90;;;;;;;;;;5024775;28;20209;-67
2022/04/17 07:49:01;;;;;;;1999.90;999.90;;;;;;;;;;5021144;28;20207;-67
2022/04/17 07:51:46;;;;;;;1999.90;999.90;;;;;;;;;;5017262;28;20233;-67
2022/04/17 07:54:31;;;;;;;1999.90;999.90;;;;;;;;;;5021403;28;20209;-68
2022/04/17 07:57:16;;;;;;;1999.90;999.90;;;;;;;;;;5019162;28;20567;-67
2022/04/17 08:00:02;;;;;;;1999.90;999.90;;;;;;;;;;5014801;28;20600;-68
2022/04/17 08:02:53;;;;;;;1999.90;999.90;;;;;;;;;;5023828;28;20230;-67
2022/04/17 08:05:39;;;;;;;1999.90;999.90;;;;;;;;;;5020783;28;20284;-66
2022/04/17 08:08:24;;;;;;;1999.90;999.90;;;;;;;;;;5017034;28;20214;-66
2022/04/17 08:11:09;;;;;;;1999.90;999.90;;;;;;;;;;5017244;28;20288;-66
2022/04/17 08:13:54;;;;;;;1999.90;999.90;;;;;;;;;;5017565;28;20423;-66
2022/04/17 08:16:39;;;;;;;1999.90;999.90;;;;;;;;;;5015658;28;20234;-67
2022/04/17 08:19:26;;;;;;;1999.90;999.90;;;;;;;;;;5020049;28;20615;-67
2022/04/17 08:22:10;;;;;;;1999.90;999.90;;;;;;;;;;5020925;28;20257;-68
2022/04/17 08:24:55;;;;;;;1999.90;999.90;;;;;;;;;;5016162;28;20569;-67
2022/04/17 08:27:47;;;;;;;1999.90;999.90;;;;;;;;;;5021650;28;20292;-66
2022/04/17 08:30:33;;;;;;;1999.90;999.90;;;;;;;;;;5020716;28;20262;-67
2022/04/17 08:33:18;;;;;;;1999.90;999.90;;;;;;;;;;5016141;28;20209;-67
2022/04/17 08:36:05;;;;;;;1999.90;999.90;;;;;;;;;;5021309;28;21562;-67
2022/04/17 08:38:50;;;;;;;1999.90;999.90;;;;;;;;;;5013657;28;20585;-67
2022/04/17 08:41:35;;;;;;;1999.90;999.90;;;;;;;;;;5018619;28;20226;-67
2022/04/17 08:44:20;;;;;;;1999.90;999.90;;;;;;;;;;5010513;28;20845;-67
2022/04/17 08:47:07;;;;;;;1999.90;999.90;;;;;;;;;;5025915;28;20753;-67
2022/04/17 08:49:54;;;;;;;1999.90;999.90;;;;;;;;;;5018580;28;20222;-67
2022/04/17 08:52:42;;;;;;;1999.90;999.90;;;;;;;;;;5019047;28;20229;-66
2022/04/17 08:55:27;;;;;;;1999.90;999.90;;;;;;;;;;5028826;28;20409;-65
2022/04/17 08:58:12;;;;;;;1999.90;999.90;;;;;;;;;;5024831;28;20684;-67
2022/04/17 09:00:57;;;;;;;1999.90;999.90;;;;;;;;;;5014402;28;20232;-67
2022/04/17 09:03:43;;;;;;;1999.90;999.90;;;;;;;;;;5017149;28;20270;-68
2022/04/17 09:06:28;;;;;;;1999.90;999.90;;;;;;;;;;5017946;28;20296;-67
2022/04/17 09:09:15;;;;;;;1999.90;999.90;;;;;;;;;;5010288;28;20202;-66
2022/04/17 09:12:00;;;;;;;1999.90;999.90;;;;;;;;;;5017977;28;20224;-68
2022/04/17 09:14:44;;;;;;;1999.90;999.90;;;;;;;;;;5014784;28;20688;-67
2022/04/17 09:17:30;;;;;;;1999.90;999.90;;;;;;;;;;5018324;28;20329;-67
2022/04/17 09:20:19;;;;;;;1999.90;999.90;;;;;;;;;;5019643;28;20238;-67
2022/04/17 09:23:04;;;;;;;1999.90;999.90;;;;;;;;;;5019582;28;20230;-67
2022/04/17 09:25:50;;;;;;;1999.90;999.90;;;;;;;;;;5020352;28;20432;-67
2022/04/17 09:28:36;;;;;;;1999.90;999.90;;;;;;;;;;5020094;28;20202;-67
2022/04/17 09:31:26;;;;;;;1999.90;999.90;;;;;;;;;;5018933;28;20226;-67
2022/04/17 09:34:11;;;;;;;1999.90;999.90;;;;;;;;;;5026787;28;20210;-66
2022/04/17 09:36:59;;;;;;;1999.90;999.90;;;;;;;;;;5031254;28;20409;-67
2022/04/17 09:39:45;;;;;;;1999.90;999.90;;;;;;;;;;5021560;28;20817;-67
2022/04/17 09:42:31;;;;;;;1999.90;999.90;;;;;;;;;;5024744;28;20804;-67
2022/04/17 09:45:16;;;;;;;1999.90;999.90;;;;;;;;;;5031862;28;20209;-65
2022/04/17 09:48:01;;;;;;;1999.90;999.90;;;;;;;;;;5029155;28;20296;-67
2022/04/17 09:50:46;;;;;;;1999.90;999.90;;;;;;;;;;5019139;28;20223;-67
2022/04/17 09:53:35;;;;;;;1999.90;999.90;;;;;;;;;;5019624;28;20254;-67
2022/04/17 09:56:29;;;;;;;1999.90;999.90;;;;;;;;;;5023379;28;20270;-68
2022/04/17 09:59:17;;;;;;;1999.90;999.90;;;;;;;;;;5028403;28;20225;-67
2022/04/17 10:02:02;;;;;;;1999.90;999.90;;;;;;;;;;5019735;28;20210;-68
2022/04/17 10:04:48;;;;;;;1999.90;999.90;;;;;;;;;;5021044;28;20210;-68
2022/04/17 10:07:33;;;;;;;1999.90;999.90;;;;;;;;;;5012070;28;20210;-68
2022/04/17 10:10:18;;;;;;;1999.90;999.90;;;;;;;;;;5022571;28;20825;-68
2022/04/17 10:13:03;;;;;;;1999.90;999.90;;;;;;;;;;5018726;28;20199;-67
2022/04/17 10:15:50;;;;;;;1999.90;999.90;;;;;;;;;;5018092;28;20241;-67
2022/04/17 10:18:39;;;;;;;1999.90;999.90;;;;;;;;;;5011939;28;20280;-68
2022/04/17 10:21:28;;;;;;;1999.90;999.90;;;;;;;;;;5021637;28;20817;-67
2022/04/17 10:24:13;;;;;;;1999.90;999.90;;;;;;;;;;5023290;28;20211;-68
2022/04/17 10:27:00;;;;;;;1999.90;999.90;;;;;;;;;;5028991;28;20293;-68
2022/04/17 10:29:48;;;;;;;1999.90;999.90;;;;;;;;;;5022548;28;20234;-68
2022/04/17 10:32:50;;;;;;;1999.90;999.90;;;;;;;;;;5025655;28;20210;-68
2022/04/17 10:35:44;;;;;;;1999.90;999.90;;;;;;;;;;5025816;28;20212;-68
2022/04/17 10:38:30;;;;;;;1999.90;999.90;;;;;;;;;;5024289;28;20341;-68
2022/04/17 10:41:16;;;;;;;1999.90;999.90;;;;;;;;;;5023208;28;20752;-67
2022/04/17 10:44:04;;;;;;;1999.90;999.90;;;;;;;;;;5026932;28;20206;-67
2022/04/17 10:46:50;;;;;;;1999.90;999.90;;;;;;;;;;5026741;28;20855;-67
2022/04/17 10:49:52;;;;;;;1999.90;999.90;;;;;;;;;;5033189;28;20569;-67
2022/04/17 10:52:37;;;;;;;1999.90;999.90;;;;;;;;;;5025469;28;20424;-68
2022/04/17 10:55:22;;;;;;;1999.90;999.90;;;;;;;;;;5023588;28;20202;-66
2022/04/17 10:58:14;;;;;;;1999.90;999.90;;;;;;;;;;5026019;28;20348;-67
2022/04/17 11:00:59;;;;;;;1999.90;999.90;;;;;;;;;;5026081;28;20230;-66
2022/04/17 11:03:52;;;;;;;1999.90;999.90;;;;;;;;;;5022029;28;20591;-67
2022/04/17 11:06:39;;;;;;;1999.90;999.90;;;;;;;;;;5026182;28;20700;-67
2022/04/17 11:09:25;;;;;;;1999.90;999.90;;;;;;;;;;5018473;28;20231;-67
2022/04/17 11:12:21;;;;;;;1999.90;999.90;;;;;;;;;;5018647;28;20210;-69
2022/04/17 11:15:21;;;;;;;1999.90;999.90;;;;;;;;;;5033944;28;20198;-68
2022/04/17 11:18:09;;;;;;;1999.90;999.90;;;;;;;;;;5033774;28;20209;-67
2022/04/17 11:20:55;;;;;;;1999.90;999.90;;;;;;;;;;5033839;28;20234;-68
2022/04/17 11:24:00;;;;;;;1999.90;999.90;;;;;;;;;;5033812;28;20209;-68
2022/04/17 11:27:04;;;;;;;1999.90;999.90;;;;;;;;;;5033743;28;20206;-68
2022/04/17 11:29:50;;;;;;;1999.90;999.90;;;;;;;;;;5033850;28;20304;-68
2022/04/17 11:32:49;;;;;;;1999.90;999.90;;;;;;;;;;5033602;28;20506;-68
2022/04/17 11:35:34;;;;;;;1999.90;999.90;;;;;;;;;;5033667;28;20218;-68
2022/04/17 11:38:19;;;;;;;1999.90;999.90;;;;;;;;;;5033573;28;20230;-68
2022/04/17 11:41:07;;;;;;;1999.90;999.90;;;;;;;;;;5033507;28;20238;-68
2022/04/17 11:43:58;;;;;;;1999.90;999.90;;;;;;;;;;5033833;28;20209;-68
2022/04/17 11:46:43;;;;;;;1999.90;999.90;;;;;;;;;;5032228;28;20426;-68
2022/04/17 11:49:32;;;;;;;1999.90;999.90;;;;;;;;;;5033194;28;20206;-68
2022/04/17 11:52:17;;;;;;;1999.90;999.90;;;;;;;;;;5033488;28;20209;-69
2022/04/17 11:55:02;;;;;;;1999.90;999.90;;;;;;;;;;5033865;28;20292;-68
2022/04/17 11:57:49;;;;;;;1999.90;999.90;;;;;;;;;;5033450;28;20229;-68
2022/04/17 12:00:34;;;;;;;1999.90;999.90;;;;;;;;;;5033212;28;20222;-68
2022/04/17 12:03:19;;;;;;;1999.90;999.90;;;;;;;;;;5033287;28;20245;-68
2022/04/17 12:06:04;;;;;;;1999.90;999.90;;;;;;;;;;5033307;28;20205;-68
2022/04/17 12:08:49;;;;;;;1999.90;999.90;;;;;;;;;;5032921;28;20202;-69
2022/04/17 12:11:39;;;;;;;1999.90;999.90;;;;;;;;;;5032983;28;20230;-68
2022/04/17 12:14:29;;;;;;;1999.90;999.90;;;;;;;;;;5032934;28;20210;-68
2022/04/17 12:17:15;;;;;;;1999.90;999.90;;;;;;;;;;5033153;28;20288;-68
2022/04/17 12:20:00;;;;;;;1999.90;999.90;;;;;;;;;;5032746;28;20229;-68
2022/04/17 12:22:45;;;;;;;1999.90;999.90;;;;;;;;;;5033336;28;20245;-69
2022/04/17 12:25:31;;;;;;;1999.90;999.90;;;;;;;;;;5032948;28;20330;-68
2022/04/17 12:28:15;;;;;;;1999.90;999.90;;;;;;;;;;5032693;28;20717;-68
2022/04/17 12:31:02;;;;;;;1999.90;999.90;;;;;;;;;;5032914;28;20265;-68
2022/04/17 12:33:47;;;;;;;1999.90;999.90;;;;;;;;;;5033041;28;20210;-68
2022/04/17 12:36:32;;;;;;;1999.90;999.90;;;;;;;;;;5032561;28;20700;-67
2022/04/17 12:39:16;;;;;;;1999.90;999.90;;;;;;;;;;5032516;28;20209;-68
2022/04/17 12:42:15;;;;;;;1999.90;999.90;;;;;;;;;;5032307;28;20234;-68
2022/04/17 12:45:00;;;;;;;1999.90;999.90;;;;;;;;;;5032811;28;20241;-69
2022/04/17 12:48:00;;;;;;;1999.90;999.90;;;;;;;;;;5032582;28;20205;-68
2022/04/17 12:50:54;;;;;;;1999.90;999.90;;;;;;;;;;5032695;28;20230;-68
2022/04/17 12:53:40;;;;;;;1999.90;999.90;;;;;;;;;;5032432;28;20206;-68
2022/04/17 12:56:26;;;;;;;1999.90;999.90;;;;;;;;;;5032568;28;20202;-68
2022/04/17 12:59:11;;;;;;;1999.90;999.90;;;;;;;;;;5032100;28;20221;-69
2022/04/17 13:01:56;;;;;;;1999.90;999.90;;;;;;;;;;5032044;28;20241;-68
2022/04/17 13:04:43;;;;;;;1999.90;999.90;;;;;;;;;;5032330;28;20575;-68
2022/04/17 13:07:32;;;;;;;1999.90;999.90;;;;;;;;;;5031984;28;20404;-68
2022/04/17 13:10:29;;;;;;;1999.90;999.90;;;;;;;;;;5031687;28;20603;-67
2022/04/17 13:13:14;;;;;;;1999.90;999.90;;;;;;;;;;5032395;28;20260;-68
2022/04/17 13:16:01;;;;;;;1999.90;999.90;;;;;;;;;;5032094;28;20819;-69
2022/04/17 13:18:53;;;;;;;1999.90;999.90;;;;;;;;;;5031651;28;20288;-69
2022/04/17 13:21:39;;;;;;;1999.90;999.90;;;;;;;;;;5031674;28;20229;-68
2022/04/17 13:24:25;;;;;;;1999.90;999.90;;;;;;;;;;5032195;28;20210;-68
2022/04/17 13:27:10;;;;;;;1999.90;999.90;;;;;;;;;;5032084;28;20397;-68
2022/04/17 13:29:55;;;;;;;1999.90;999.90;;;;;;;;;;5031631;28;20245;-68
2022/04/17 13:32:40;;;;;;;1999.90;999.90;;;;;;;;;;5031708;28;20859;-67
2022/04/17 13:35:25;;;;;;;1999.90;999.90;;;;;;;;;;5032051;28;20209;-69
2022/04/17 13:38:14;;;;;;;1999.90;999.90;;;;;;;;;;5030793;28;20446;-68
2022/04/17 13:40:59;;;;;;;1999.90;999.90;;;;;;;;;;5031592;28;20221;-69
2022/04/17 13:43:44;;;;;;;1999.90;999.90;;;;;;;;;;5031818;28;20242;-68
2022/04/17 13:46:32;;;;;;;1999.90;999.90;;;;;;;;;;5031876;28;20593;-69
2022/04/17 13:49:17;;;;;;;1999.90;999.90;;;;;;;;;;5031081;28;20416;-68
2022/04/17 13:52:02;;;;;;;1999.90;999.90;;;;;;;;;;5031683;28;20225;-69
2022/04/17 13:54:48;;;;;;;1999.90;999.90;;;;;;;;;;5033656;28;20202;-68
2022/04/17 13:57:33;;;;;;;1999.90;999.90;;;;;;;;;;5035732;28;20222;-68
2022/04/17 14:00:19;;;;;;;1999.90;999.90;;;;;;;;;;5035612;28;20225;-68
2022/04/17 14:03:04;;;;;;;1999.90;999.90;;;;;;;;;;5035473;28;20213;-69
2022/04/17 14:05:49;;;;;;;1999.90;999.90;;;;;;;;;;5035639;28;20257;-68
2022/04/17 14:08:34;;;;;;;1999.90;999.90;;;;;;;;;;5035111;28;20210;-69
2022/04/17 14:11:21;;;;;;;1999.90;999.90;;;;;;;;;;5035336;28;20719;-69
2022/04/17 14:14:06;;;;;;;1999.90;999.90;;;;;;;;;;5035507;28;20210;-68
2022/04/17 14:16:51;;;;;;;1999.90;999.90;;;;;;;;;;5035189;28;20325;-68
2022/04/17 14:19:36;;;;;;;1999.90;999.90;;;;;;;;;;5034188;28;20407;-69
2022/04/17 14:22:24;;;;;;;1999.90;999.90;;;;;;;;;;5034906;28;20782;-67
2022/04/17 14:25:08;;;;;;;1999.90;999.90;;;;;;;;;;5035230;28;20209;-69
2022/04/17 14:27:55;;;;;;;1999.90;999.90;;;;;;;;;;5034612;28;20260;-69
2022/04/17 14:30:40;;;;;;;1999.90;999.90;;;;;;;;;;5034910;28;20222;-68
2022/04/17 14:33:25;;;;;;;1999.90;999.90;;;;;;;;;;5035351;28;20321;-68
2022/04/17 14:36:10;;;;;;;1999.90;999.90;;;;;;;;;;5034995;28;20206;-68
2022/04/17 14:38:55;;;;;;;1999.90;999.90;;;;;;;;;;5034514;28;20207;-69
2022/04/17 14:41:40;;;;;;;1999.90;999.90;;;;;;;;;;5034572;28;20516;-68
2022/04/17 14:44:26;;;;;;;1999.90;999.90;;;;;;;;;;5034946;28;20314;-69
2022/04/17 14:47:11;;;;;;;1999.90;999.90;;;;;;;;;;5034853;28;20201;-69
2022/04/17 14:49:56;;;;;;;1999.90;999.90;;;;;;;;;;5034091;28;20226;-69
2022/04/17 14:52:41;;;;;;;1999.90;999.90;;;;;;;;;;5034405;28;20563;-69
2022/04/17 14:55:25;;;;;;;1999.90;999.90;;;;;;;;;;5034755;28;20256;-68
2022/04/17 14:58:11;;;;;;;1999.90;999.90;;;;;;;;;;5034521;28;20226;-68
2022/04/17 15:00:57;;;;;;;1999.90;999.90;;;;;;;;;;5033586;28;20948;-68
2022/04/17 15:03:43;;;;;;;1999.90;999.90;;;;;;;;;;5034394;28;20590;-67
2022/04/17 15:06:28;;;;;;;1999.90;999.90;;;;;;;;;;5032982;28;20206;-68
2022/04/17 15:09:13;;;;;;;1999.90;999.90;;;;;;;;;;5034146;28;20256;-67
2022/04/17 15:11:58;;;;;;;1999.90;999.90;;;;;;;;;;5033758;28;20783;-68
2022/04/17 15:14:43;;;;;;;1999.90;999.90;;;;;;;;;;5034303;28;20710;-67
2022/04/17 15:17:30;;;;;;;1999.90;999.90;;;;;;;;;;5034312;28;20268;-68
2022/04/17 15:20:15;;;;;;;1999.90;999.90;;;;;;;;;;5034026;28;20345;-65
2022/04/17 15:23:02;;;;;;;1999.90;999.90;;;;;;;;;;5033930;28;20206;-67
2022/04/17 15:25:47;;;;;;;1999.90;999.90;;;;;;;;;;5034038;28;20357;-68
2022/04/17 15:28:32;;;;;;;1999.90;999.90;;;;;;;;;;5033701;28;20213;-69
2022/04/17 15:31:17;;;;;;;1999.90;999.90;;;;;;;;;;5033793;28;20221;-69
2022/04/17 15:34:03;;;;;;;1999.90;999.90;;;;;;;;;;5033871;28;20244;-68
2022/04/17 15:36:48;;;;;;;1999.90;999.90;;;;;;;;;;5033812;28;20202;-69
2022/04/17 15:39:32;;;;;;;1999.90;999.90;;;;;;;;;;5033369;28;20610;-68
2022/04/17 15:42:17;;;;;;;1999.90;999.90;;;;;;;;;;5033333;28;20227;-66